KMWK Airport (Mount Airy/Surry County) Information

FAA: MWK - ICAO: KMWK

KMWK Airport Location

State North Carolina
County Surry
City Mount Airy
KMWK Airport is 3 miles southeast of Mount Airy, NC.
Latitude 36-27-40.9020N
Longitude 080-33-11.5570W
Elevation 1,268ft

KMWK Airport METARs

METAR KMWK 071955Z AUTO 00000KT 7SM SCT008 BKN055 OVC075 12/11 A3021 RMK AO2 T01190111
Altimeter 30.21"
Temperature 11.9°C (53.4°F)
Wind 0° at 0KT
Clouds scattered at 800ft broken at 5,500ft overcast at 7,500ft
Visibility 7.0mi
Time observed: 2022-12-07T19:55:00Z

KMWK Airport Details

Status Operational
Activation January 1968
Ownership Public
Usage Public
Chart CINCINNATI
ATC on-site No
Beacon schedule sunset-sunrise
Beacon color clear green

KMWK Airport Contacts

Owner CITY OF MOUNT AIRY & SURRY COUNTY
Owner address 146 HOWARD WOLTZ JR. WAY, MOUNT AIRY, NC 27030-9020
Owner phone (336) 401-8264
Manager DON J. BOYD
Manager address 196 MCALLISTER RD, MOCKSVILLE, NC 27028
Manager phone 336-408-0785

KMWK Airport (Mount Airy/Surry County) Radio Frequencies

KMWK (Airport) Radio Frequencies

UNICOM 123
Common traffic advisory frequency (CTAF) 123